sensor_id;sensor_type;location;lat;lon;timestamp;P1;durP1;ratioP1;P2;durP2;ratioP2
4903;SDS011;2467;48.142;11.616;2023-04-10T00:00:11;13.50;;;12.30;;
4903;SDS011;2467;48.142;11.616;2023-04-10T00:00:43;14.32;;;12.93;;
4903;SDS011;2467;48.142;11.616;2023-04-10T00:01:16;12.65;;;11.48;;
4903;SDS011;2467;48.142;11.616;2023-04-10T00:01:48;13.35;;;12.02;;
4903;SDS011;2467;48.142;11.616;2023-04-10T00:02:21;13.45;;;12.15;;
4903;SDS011;2467;48.142;11.616;2023-04-10T00:02:54;13.18;;;12.00;;
4903;SDS011;2467;48.142;11.616;2023-04-10T00:03:26;14.15;;;12.75;;
4903;SDS011;2467;48.142;11.616;2023-04-10T00:04:00;12.38;;;11.18;;
4903;SDS011;2467;48.142;11.616;2023-04-10T00:04:33;14.32;;;12.95;;
4903;SDS011;2467;48.142;11.616;2023-04-10T00:05:05;13.65;;;12.45;;
4903;SDS011;2467;48.142;11.616;2023-04-10T00:05:38;13.02;;;11.73;;
4903;SDS011;2467;48.142;11.616;2023-04-10T00:06:11;12.10;;;10.98;;
4903;SDS011;2467;48.142;11.616;2023-04-10T00:06:43;12.25;;;11.15;;
4903;SDS011;2467;48.142;11.616;2023-04-10T00:07:14;11.85;;;10.75;;
4903;SDS011;2467;48.142;11.616;2023-04-10T00:07:47;13.95;;;12.60;;
4903;SDS011;2467;48.142;11.616;2023-04-10T00:08:21;14.68;;;11.95;;
4903;SDS011;2467;48.142;11.616;2023-04-10T00:08:53;12.65;;;11.38;;
4903;SDS011;2467;48.142;11.616;2023-04-10T00:09:25;12.52;;;11.43;;
4903;SDS011;2467;48.142;11.616;2023-04-10T00:09:59;12.35;;;11.15;;
4903;SDS011;2467;48.142;11.616;2023-04-10T00:10:30;12.82;;;11.63;;
4903;SDS011;2467;48.142;11.616;2023-04-10T00:11:03;12.68;;;11.55;;
4903;SDS011;2467;48.142;11.616;2023-04-10T00:11:36;11.90;;;10.73;;
4903;SDS011;2467;48.142;11.616;2023-04-10T00:12:08;13.32;;;12.02;;
4903;SDS011;2467;48.142;11.616;2023-04-10T00:12:41;13.18;;;11.98;;
4903;SDS011;2467;48.142;11.616;2023-04-10T00:13:14;12.20;;;10.90;;
4903;SDS011;2467;48.142;11.616;2023-04-10T00:13:46;13.32;;;12.02;;
4903;SDS011;2467;48.142;11.616;2023-04-10T00:14:18;13.45;;;12.15;;
4903;SDS011;2467;48.142;11.616;2023-04-10T00:14:53;13.68;;;12.43;;
4903;SDS011;2467;48.142;11.616;2023-04-10T00:15:25;13.00;;;11.60;;
4903;SDS011;2467;48.142;11.616;2023-04-10T00:15:57;13.48;;;12.07;;
4903;SDS011;2467;48.142;11.616;2023-04-10T00:16:29;12.05;;;10.90;;
4903;SDS011;2467;48.142;11.616;2023-04-10T00:17:01;13.52;;;12.10;;
4903;SDS011;2467;48.142;11.616;2023-04-10T00:17:33;13.70;;;12.38;;
4903;SDS011;2467;48.142;11.616;2023-04-10T00:18:06;13.88;;;12.55;;
4903;SDS011;2467;48.142;11.616;2023-04-10T00:18:38;11.80;;;10.70;;
4903;SDS011;2467;48.142;11.616;2023-04-10T00:19:11;13.23;;;12.02;;
4903;SDS011;2467;48.142;11.616;2023-04-10T00:19:44;11.82;;;10.73;;
4903;SDS011;2467;48.142;11.616;2023-04-10T00:20:16;13.35;;;12.15;;
4903;SDS011;2467;48.142;11.616;2023-04-10T00:20:48;13.98;;;12.60;;
4903;SDS011;2467;48.142;11.616;2023-04-10T00:21:19;13.05;;;11.85;;
4903;SDS011;2467;48.142;11.616;2023-04-10T00:21:52;14.40;;;12.90;;
4903;SDS011;2467;48.142;11.616;2023-04-10T00:22:25;13.07;;;11.77;;
4903;SDS011;2467;48.142;11.616;2023-04-10T00:22:57;12.65;;;11.35;;
4903;SDS011;2467;48.142;11.616;2023-04-10T00:23:30;13.15;;;11.85;;
4903;SDS011;2467;48.142;11.616;2023-04-10T00:24:02;12.00;;;10.90;;
4903;SDS011;2467;48.142;11.616;2023-04-10T00:24:35;12.50;;;11.30;;
4903;SDS011;2467;48.142;11.616;2023-04-10T00:25:08;13.10;;;11.77;;
4903;SDS011;2467;48.142;11.616;2023-04-10T00:25:40;13.60;;;12.27;;
4903;SDS011;2467;48.142;11.616;2023-04-10T00:26:11;12.48;;;11.30;;
4903;SDS011;2467;48.142;11.616;2023-04-10T00:26:44;13.05;;;11.75;;
4903;SDS011;2467;48.142;11.616;2023-04-10T00:27:16;14.18;;;12.88;;
4903;SDS011;2467;48.142;11.616;2023-04-10T00:27:48;12.82;;;11.52;;
4903;SDS011;2467;48.142;11.616;2023-04-10T00:28:21;11.73;;;10.75;;
4903;SDS011;2467;48.142;11.616;2023-04-10T00:28:53;12.35;;;10.98;;
4903;SDS011;2467;48.142;11.616;2023-04-10T00:29:25;14.05;;;12.88;;
4903;SDS011;2467;48.142;11.616;2023-04-10T00:29:58;12.38;;;11.07;;
4903;SDS011;2467;48.142;11.616;2023-04-10T00:30:30;14.45;;;13.00;;
4903;SDS011;2467;48.142;11.616;2023-04-10T00:31:01;13.13;;;11.85;;
4903;SDS011;2467;48.142;11.616;2023-04-10T00:31:34;12.98;;;11.60;;
4903;SDS011;2467;48.142;11.616;2023-04-10T00:32:06;14.20;;;12.85;;
4903;SDS011;2467;48.142;11.616;2023-04-10T00:32:38;11.38;;;10.30;;
4903;SDS011;2467;48.142;11.616;2023-04-10T00:33:11;11.32;;;10.32;;
4903;SDS011;2467;48.142;11.616;2023-04-10T00:33:43;12.45;;;11.25;;
4903;SDS011;2467;48.142;11.616;2023-04-10T00:34:16;11.90;;;10.70;;
4903;SDS011;2467;48.142;11.616;2023-04-10T00:34:49;12.35;;;11.23;;
4903;SDS011;2467;48.142;11.616;2023-04-10T00:35:21;12.23;;;11.13;;
4903;SDS011;2467;48.142;11.616;2023-04-10T00:35:54;12.00;;;10.88;;
4903;SDS011;2467;48.142;11.616;2023-04-10T00:36:26;12.57;;;11.30;;
4903;SDS011;2467;48.142;11.616;2023-04-10T00:36:58;12.73;;;11.52;;
4903;SDS011;2467;48.142;11.616;2023-04-10T00:37:30;12.48;;;11.25;;
4903;SDS011;2467;48.142;11.616;2023-04-10T00:38:02;11.35;;;10.25;;
4903;SDS011;2467;48.142;11.616;2023-04-10T00:38:34;11.65;;;10.52;;
4903;SDS011;2467;48.142;11.616;2023-04-10T00:39:08;12.80;;;11.55;;
4903;SDS011;2467;48.142;11.616;2023-04-10T00:39:40;11.55;;;10.45;;
4903;SDS011;2467;48.142;11.616;2023-04-10T00:40:12;13.00;;;11.80;;
4903;SDS011;2467;48.142;11.616;2023-04-10T00:40:44;11.57;;;10.50;;
4903;SDS011;2467;48.142;11.616;2023-04-10T00:41:17;11.30;;;10.30;;
4903;SDS011;2467;48.142;11.616;2023-04-10T00:41:48;11.68;;;10.57;;
4903;SDS011;2467;48.142;11.616;2023-04-10T00:42:20;12.43;;;11.25;;
4903;SDS011;2467;48.142;11.616;2023-04-10T00:42:53;11.80;;;10.70;;
4903;SDS011;2467;48.142;11.616;2023-04-10T00:43:25;11.45;;;10.45;;
4903;SDS011;2467;48.142;11.616;2023-04-10T00:43:57;11.60;;;10.60;;
4903;SDS011;2467;48.142;11.616;2023-04-10T00:44:30;12.15;;;10.98;;
4903;SDS011;2467;48.142;11.616;2023-04-10T00:45:07;12.35;;;11.18;;
4903;SDS011;2467;48.142;11.616;2023-04-10T00:45:40;11.50;;;10.50;;
4903;SDS011;2467;48.142;11.616;2023-04-10T00:46:12;13.15;;;11.85;;
4903;SDS011;2467;48.142;11.616;2023-04-10T00:46:45;13.00;;;11.80;;
4903;SDS011;2467;48.142;11.616;2023-04-10T00:47:16;11.93;;;10.82;;
4903;SDS011;2467;48.142;11.616;2023-04-10T00:47:50;11.57;;;10.48;;
4903;SDS011;2467;48.142;11.616;2023-04-10T00:48:22;11.48;;;10.40;;
4903;SDS011;2467;48.142;11.616;2023-04-10T00:48:54;12.05;;;10.85;;
4903;SDS011;2467;48.142;11.616;2023-04-10T00:49:28;11.63;;;10.52;;
4903;SDS011;2467;48.142;11.616;2023-04-10T00:50:01;12.15;;;10.95;;
4903;SDS011;2467;48.142;11.616;2023-04-10T00:50:34;11.52;;;10.43;;
4903;SDS011;2467;48.142;11.616;2023-04-10T00:51:07;10.75;;;9.65;;
4903;SDS011;2467;48.142;11.616;2023-04-10T00:51:39;11.23;;;10.13;;
4903;SDS011;2467;48.142;11.616;2023-04-10T00:52:12;11.30;;;10.30;;
4903;SDS011;2467;48.142;11.616;2023-04-10T00:52:44;12.18;;;10.98;;
4903;SDS011;2467;48.142;11.616;2023-04-10T00:53:17;11.25;;;10.15;;
4903;SDS011;2467;48.142;11.616;2023-04-10T00:53:48;12.68;;;11.40;;
4903;SDS011;2467;48.142;11.616;2023-04-10T00:54:21;11.20;;;10.10;;
4903;SDS011;2467;48.142;11.616;2023-04-10T00:54:54;11.43;;;10.23;;
4903;SDS011;2467;48.142;11.616;2023-04-10T00:55:26;11.90;;;10.82;;
4903;SDS011;2467;48.142;11.616;2023-04-10T00:55:58;11.23;;;10.23;;
4903;SDS011;2467;48.142;11.616;2023-04-10T00:56:32;11.13;;;10.13;;
4903;SDS011;2467;48.142;11.616;2023-04-10T00:57:04;11.15;;;9.95;;
4903;SDS011;2467;48.142;11.616;2023-04-10T00:57:37;10.80;;;9.80;;
4903;SDS011;2467;48.142;11.616;2023-04-10T00:58:11;11.60;;;10.45;;
4903;SDS011;2467;48.142;11.616;2023-04-10T00:58:44;12.98;;;11.77;;
4903;SDS011;2467;48.142;11.616;2023-04-10T00:59:16;11.50;;;10.43;;
4903;SDS011;2467;48.142;11.616;2023-04-10T00:59:49;11.68;;;10.52;;
4903;SDS011;2467;48.142;11.616;2023-04-10T01:00:23;11.70;;;10.50;;
4903;SDS011;2467;48.142;11.616;2023-04-10T01:00:55;11.10;;;10.00;;
4903;SDS011;2467;48.142;11.616;2023-04-10T01:01:27;10.55;;;9.60;;
4903;SDS011;2467;48.142;11.616;2023-04-10T01:01:59;10.52;;;9.52;;
4903;SDS011;2467;48.142;11.616;2023-04-10T01:02:31;10.13;;;9.13;;
4903;SDS011;2467;48.142;11.616;2023-04-10T01:03:04;11.32;;;10.32;;
4903;SDS011;2467;48.142;11.616;2023-04-10T01:03:37;12.02;;;10.88;;
4903;SDS011;2467;48.142;11.616;2023-04-10T01:04:11;10.85;;;9.95;;
4903;SDS011;2467;48.142;11.616;2023-04-10T01:04:46;11.10;;;10.00;;
4903;SDS011;2467;48.142;11.616;2023-04-10T01:05:18;11.50;;;10.40;;
4903;SDS011;2467;48.142;11.616;2023-04-10T01:05:51;11.20;;;10.10;;
4903;SDS011;2467;48.142;11.616;2023-04-10T01:06:34;11.02;;;10.02;;
4903;SDS011;2467;48.142;11.616;2023-04-10T01:07:20;11.60;;;10.50;;
4903;SDS011;2467;48.142;11.616;2023-04-10T01:08:03;10.05;;;9.15;;
4903;SDS011;2467;48.142;11.616;2023-04-10T01:08:44;11.18;;;10.10;;
4903;SDS011;2467;48.142;11.616;2023-04-10T01:09:25;10.80;;;9.70;;
4903;SDS011;2467;48.142;11.616;2023-04-10T01:10:09;10.55;;;9.48;;
4903;SDS011;2467;48.142;11.616;2023-04-10T01:10:47;11.07;;;9.98;;
4903;SDS011;2467;48.142;11.616;2023-04-10T01:11:35;10.20;;;9.23;;
4903;SDS011;2467;48.142;11.616;2023-04-10T01:12:19;10.52;;;9.52;;
4903;SDS011;2467;48.142;11.616;2023-04-10T01:13:11;10.65;;;9.55;;
4903;SDS011;2467;48.142;11.616;2023-04-10T01:13:47;9.75;;;8.80;;
4903;SDS011;2467;48.142;11.616;2023-04-10T01:14:26;11.48;;;10.38;;
4903;SDS011;2467;48.142;11.616;2023-04-10T01:15:06;11.45;;;10.35;;
4903;SDS011;2467;48.142;11.616;2023-04-10T01:15:43;10.00;;;9.00;;
4903;SDS011;2467;48.142;11.616;2023-04-10T01:16:21;9.55;;;8.65;;
4903;SDS011;2467;48.142;11.616;2023-04-10T01:17:00;11.13;;;10.13;;
4903;SDS011;2467;48.142;11.616;2023-04-10T01:17:37;10.75;;;9.60;;
4903;SDS011;2467;48.142;11.616;2023-04-10T01:18:15;9.35;;;8.45;;
4903;SDS011;2467;48.142;11.616;2023-04-10T01:18:52;9.75;;;8.85;;
4903;SDS011;2467;48.142;11.616;2023-04-10T01:19:33;10.65;;;9.65;;
4903;SDS011;2467;48.142;11.616;2023-04-10T01:20:24;9.02;;;8.18;;
4903;SDS011;2467;48.142;11.616;2023-04-10T01:21:00;10.23;;;9.23;;
4903;SDS011;2467;48.142;11.616;2023-04-10T01:21:35;9.85;;;8.95;;
4903;SDS011;2467;48.142;11.616;2023-04-10T01:22:10;11.27;;;10.18;;
4903;SDS011;2467;48.142;11.616;2023-04-10T01:22:50;10.20;;;9.20;;
4903;SDS011;2467;48.142;11.616;2023-04-10T01:24:36;9.93;;;8.88;;
4903;SDS011;2467;48.142;11.616;2023-04-10T01:26:12;9.40;;;8.50;;
4903;SDS011;2467;48.142;11.616;2023-04-10T01:26:52;9.98;;;8.98;;
4903;SDS011;2467;48.142;11.616;2023-04-10T01:27:38;9.73;;;8.73;;
4903;SDS011;2467;48.142;11.616;2023-04-10T01:29:22;9.77;;;8.77;;
4903;SDS011;2467;48.142;11.616;2023-04-10T01:29:57;10.85;;;8.90;;
4903;SDS011;2467;48.142;11.616;2023-04-10T01:30:33;10.27;;;9.18;;
4903;SDS011;2467;48.142;11.616;2023-04-10T01:31:09;8.75;;;7.95;;
4903;SDS011;2467;48.142;11.616;2023-04-10T01:31:48;9.65;;;8.77;;
4903;SDS011;2467;48.142;11.616;2023-04-10T01:32:25;10.45;;;9.43;;
4903;SDS011;2467;48.142;11.616;2023-04-10T01:32:59;9.25;;;8.43;;
4903;SDS011;2467;48.142;11.616;2023-04-10T01:33:34;9.45;;;8.30;;
4903;SDS011;2467;48.142;11.616;2023-04-10T01:34:14;12.63;;;10.23;;
4903;SDS011;2467;48.142;11.616;2023-04-10T01:34:50;9.75;;;8.75;;
4903;SDS011;2467;48.142;11.616;2023-04-10T01:35:25;10.65;;;9.57;;
4903;SDS011;2467;48.142;11.616;2023-04-10T01:35:59;10.48;;;9.38;;
4903;SDS011;2467;48.142;11.616;2023-04-10T01:36:35;9.38;;;8.50;;
4903;SDS011;2467;48.142;11.616;2023-04-10T01:37:12;10.65;;;9.70;;
4903;SDS011;2467;48.142;11.616;2023-04-10T01:37:46;11.30;;;10.30;;
4903;SDS011;2467;48.142;11.616;2023-04-10T01:38:20;9.85;;;8.85;;
4903;SDS011;2467;48.142;11.616;2023-04-10T01:38:57;12.13;;;11.02;;
4903;SDS011;2467;48.142;11.616;2023-04-10T01:39:30;10.02;;;9.02;;
4903;SDS011;2467;48.142;11.616;2023-04-10T01:40:07;10.90;;;9.80;;
4903;SDS011;2467;48.142;11.616;2023-04-10T01:40:41;10.90;;;9.88;;
4903;SDS011;2467;48.142;11.616;2023-04-10T01:41:20;11.13;;;10.13;;
4903;SDS011;2467;48.142;11.616;2023-04-10T01:41:54;10.73;;;9.73;;
4903;SDS011;2467;48.142;11.616;2023-04-10T01:42:30;11.02;;;9.98;;
4903;SDS011;2467;48.142;11.616;2023-04-10T01:43:05;11.10;;;10.10;;
4903;SDS011;2467;48.142;11.616;2023-04-10T01:43:41;10.38;;;9.45;;
4903;SDS011;2467;48.142;11.616;2023-04-10T01:44:16;11.85;;;10.75;;
4903;SDS011;2467;48.142;11.616;2023-04-10T01:44:51;11.10;;;10.10;;
4903;SDS011;2467;48.142;11.616;2023-04-10T01:45:26;11.98;;;10.80;;
4903;SDS011;2467;48.142;11.616;2023-04-10T01:45:59;10.50;;;9.60;;
4903;SDS011;2467;48.142;11.616;2023-04-10T01:46:32;11.30;;;10.30;;
4903;SDS011;2467;48.142;11.616;2023-04-10T01:47:05;11.70;;;10.50;;
4903;SDS011;2467;48.142;11.616;2023-04-10T01:47:38;11.73;;;10.63;;
4903;SDS011;2467;48.142;11.616;2023-04-10T01:48:10;10.80;;;9.80;;
4903;SDS011;2467;48.142;11.616;2023-04-10T01:48:42;10.60;;;9.60;;
4903;SDS011;2467;48.142;11.616;2023-04-10T01:49:16;11.20;;;10.20;;
4903;SDS011;2467;48.142;11.616;2023-04-10T01:49:48;11.68;;;10.48;;
4903;SDS011;2467;48.142;11.616;2023-04-10T01:50:21;11.55;;;10.45;;
4903;SDS011;2467;48.142;11.616;2023-04-10T01:50:55;12.07;;;10.98;;
4903;SDS011;2467;48.142;11.616;2023-04-10T01:51:28;11.73;;;10.68;;
4903;SDS011;2467;48.142;11.616;2023-04-10T01:52:02;11.93;;;10.77;;
4903;SDS011;2467;48.142;11.616;2023-04-10T01:52:38;12.18;;;11.07;;
4903;SDS011;2467;48.142;11.616;2023-04-10T01:53:11;13.15;;;11.00;;
4903;SDS011;2467;48.142;11.616;2023-04-10T01:53:43;11.20;;;10.10;;
4903;SDS011;2467;48.142;11.616;2023-04-10T01:54:19;11.10;;;10.10;;
4903;SDS011;2467;48.142;11.616;2023-04-10T01:54:51;11.48;;;10.27;;
4903;SDS011;2467;48.142;11.616;2023-04-10T01:55:25;11.38;;;10.00;;
4903;SDS011;2467;48.142;11.616;2023-04-10T01:55:57;12.38;;;11.20;;
4903;SDS011;2467;48.142;11.616;2023-04-10T01:56:30;11.65;;;10.55;;
4903;SDS011;2467;48.142;11.616;2023-04-10T01:57:04;11.13;;;10.13;;
4903;SDS011;2467;48.142;11.616;2023-04-10T01:57:37;12.80;;;11.57;;
4903;SDS011;2467;48.142;11.616;2023-04-10T01:58:08;11.07;;;10.07;;
4903;SDS011;2467;48.142;11.616;2023-04-10T01:58:42;12.48;;;11.23;;
4903;SDS011;2467;48.142;11.616;2023-04-10T01:59:15;12.13;;;11.02;;
4903;SDS011;2467;48.142;11.616;2023-04-10T01:59:48;11.88;;;10.68;;
4903;SDS011;2467;48.142;11.616;2023-04-10T02:00:21;11.27;;;10.27;;
4903;SDS011;2467;48.142;11.616;2023-04-10T02:00:53;12.55;;;11.25;;
4903;SDS011;2467;48.142;11.616;2023-04-10T02:01:24;11.85;;;10.75;;
4903;SDS011;2467;48.142;11.616;2023-04-10T02:02:00;12.32;;;11.02;;
4903;SDS011;2467;48.142;11.616;2023-04-10T02:02:33;11.43;;;10.40;;
4903;SDS011;2467;48.142;11.616;2023-04-10T02:03:05;11.43;;;10.32;;
4903;SDS011;2467;48.142;11.616;2023-04-10T02:03:38;12.68;;;11.35;;
4903;SDS011;2467;48.142;11.616;2023-04-10T02:04:10;12.55;;;11.45;;
4903;SDS011;2467;48.142;11.616;2023-04-10T02:04:42;12.32;;;11.00;;
4903;SDS011;2467;48.142;11.616;2023-04-10T02:05:17;12.18;;;11.07;;
4903;SDS011;2467;48.142;11.616;2023-04-10T02:05:52;11.25;;;10.25;;
4903;SDS011;2467;48.142;11.616;2023-04-10T02:06:35;12.20;;;11.00;;
4903;SDS011;2467;48.142;11.616;2023-04-10T02:07:15;11.70;;;10.52;;
4903;SDS011;2467;48.142;11.616;2023-04-10T02:07:53;10.80;;;9.80;;
4903;SDS011;2467;48.142;11.616;2023-04-10T02:08:33;10.95;;;9.77;;
4903;SDS011;2467;48.142;11.616;2023-04-10T02:09:09;11.38;;;10.30;;
4903;SDS011;2467;48.142;11.616;2023-04-10T02:09:47;11.30;;;10.05;;
4903;SDS011;2467;48.142;11.616;2023-04-10T02:10:27;10.45;;;9.35;;
4903;SDS011;2467;48.142;11.616;2023-04-10T02:11:03;11.48;;;10.20;;
4903;SDS011;2467;48.142;11.616;2023-04-10T02:11:44;9.98;;;8.98;;
4903;SDS011;2467;48.142;11.616;2023-04-10T02:12:21;11.07;;;9.90;;
4903;SDS011;2467;48.142;11.616;2023-04-10T02:12:58;10.77;;;9.73;;
4903;SDS011;2467;48.142;11.616;2023-04-10T02:13:31;11.32;;;10.32;;
4903;SDS011;2467;48.142;11.616;2023-04-10T02:14:07;10.57;;;9.55;;
4903;SDS011;2467;48.142;11.616;2023-04-10T02:14:44;10.60;;;9.55;;
4903;SDS011;2467;48.142;11.616;2023-04-10T02:15:18;10.23;;;9.32;;
4903;SDS011;2467;48.142;11.616;2023-04-10T02:15:52;11.30;;;10.20;;
4903;SDS011;2467;48.142;11.616;2023-04-10T02:16:27;11.07;;;10.00;;
4903;SDS011;2467;48.142;11.616;2023-04-10T02:17:02;9.50;;;8.57;;
4903;SDS011;2467;48.142;11.616;2023-04-10T02:17:35;10.73;;;9.73;;
4903;SDS011;2467;48.142;11.616;2023-04-10T02:18:09;10.25;;;9.30;;
4903;SDS011;2467;48.142;11.616;2023-04-10T02:18:42;10.05;;;9.15;;
4903;SDS011;2467;48.142;11.616;2023-04-10T02:19:16;10.05;;;9.20;;
4903;SDS011;2467;48.142;11.616;2023-04-10T02:19:49;9.60;;;8.63;;
4903;SDS011;2467;48.142;11.616;2023-04-10T02:20:23;9.77;;;8.88;;
4903;SDS011;2467;48.142;11.616;2023-04-10T02:20:56;11.02;;;10.02;;
4903;SDS011;2467;48.142;11.616;2023-04-10T02:21:28;10.10;;;9.18;;
4903;SDS011;2467;48.142;11.616;2023-04-10T02:22:02;10.73;;;9.60;;
4903;SDS011;2467;48.142;11.616;2023-04-10T02:22:36;10.50;;;9.50;;
4903;SDS011;2467;48.142;11.616;2023-04-10T02:23:11;10.85;;;9.75;;
4903;SDS011;2467;48.142;11.616;2023-04-10T02:23:43;10.55;;;9.55;;
4903;SDS011;2467;48.142;11.616;2023-04-10T02:24:16;10.95;;;9.95;;
4903;SDS011;2467;48.142;11.616;2023-04-10T02:24:48;10.10;;;9.15;;
4903;SDS011;2467;48.142;11.616;2023-04-10T02:25:20;9.88;;;9.07;;
4903;SDS011;2467;48.142;11.616;2023-04-10T02:25:53;9.73;;;8.82;;
4903;SDS011;2467;48.142;11.616;2023-04-10T02:26:27;10.35;;;9.35;;
4903;SDS011;2467;48.142;11.616;2023-04-10T02:26:59;10.70;;;9.73;;
4903;SDS011;2467;48.142;11.616;2023-04-10T02:27:32;9.80;;;9.00;;
4903;SDS011;2467;48.142;11.616;2023-04-10T02:28:05;10.60;;;9.60;;
4903;SDS011;2467;48.142;11.616;2023-04-10T02:28:38;10.00;;;9.07;;
4903;SDS011;2467;48.142;11.616;2023-04-10T02:29:11;10.98;;;9.88;;
4903;SDS011;2467;48.142;11.616;2023-04-10T02:29:44;10.43;;;9.52;;
4903;SDS011;2467;48.142;11.616;2023-04-10T02:30:16;10.07;;;9.05;;
4903;SDS011;2467;48.142;11.616;2023-04-10T02:30:49;9.60;;;8.70;;
4903;SDS011;2467;48.142;11.616;2023-04-10T02:31:21;10.18;;;9.07;;
4903;SDS011;2467;48.142;11.616;2023-04-10T02:31:54;10.65;;;9.65;;
4903;SDS011;2467;48.142;11.616;2023-04-10T02:32:27;9.95;;;9.05;;
4903;SDS011;2467;48.142;11.616;2023-04-10T02:32:59;10.02;;;9.10;;
4903;SDS011;2467;48.142;11.616;2023-04-10T02:33:31;10.32;;;9.43;;
4903;SDS011;2467;48.142;11.616;2023-04-10T02:34:04;10.85;;;9.68;;
4903;SDS011;2467;48.142;11.616;2023-04-10T02:34:37;10.70;;;9.70;;
4903;SDS011;2467;48.142;11.616;2023-04-10T02:35:09;10.13;;;9.13;;
4903;SDS011;2467;48.142;11.616;2023-04-10T02:35:42;11.95;;;10.77;;
4903;SDS011;2467;48.142;11.616;2023-04-10T02:36:13;10.45;;;9.45;;
4903;SDS011;2467;48.142;11.616;2023-04-10T02:36:45;10.38;;;9.38;;
4903;SDS011;2467;48.142;11.616;2023-04-10T02:37:18;10.20;;;9.20;;
4903;SDS011;2467;48.142;11.616;2023-04-10T02:37:50;10.82;;;9.82;;
4903;SDS011;2467;48.142;11.616;2023-04-10T02:38:22;10.57;;;9.57;;
4903;SDS011;2467;48.142;11.616;2023-04-10T02:38:55;9.93;;;8.93;;
4903;SDS011;2467;48.142;11.616;2023-04-10T02:39:27;10.07;;;9.07;;
4903;SDS011;2467;48.142;11.616;2023-04-10T02:39:58;11.15;;;10.10;;
4903;SDS011;2467;48.142;11.616;2023-04-10T02:40:31;10.30;;;9.38;;
4903;SDS011;2467;48.142;11.616;2023-04-10T02:41:03;10.88;;;9.82;;
4903;SDS011;2467;48.142;11.616;2023-04-10T02:41:36;11.45;;;10.30;;
4903;SDS011;2467;48.142;11.616;2023-04-10T02:42:09;10.73;;;9.73;;
4903;SDS011;2467;48.142;11.616;2023-04-10T02:42:41;9.35;;;8.45;;
4903;SDS011;2467;48.142;11.616;2023-04-10T02:43:13;9.93;;;8.98;;
4903;SDS011;2467;48.142;11.616;2023-04-10T02:43:45;10.98;;;8.82;;
4903;SDS011;2467;48.142;11.616;2023-04-10T02:44:17;9.75;;;8.75;;
4903;SDS011;2467;48.142;11.616;2023-04-10T02:44:51;10.25;;;9.25;;
4903;SDS011;2467;48.142;11.616;2023-04-10T02:45:22;9.60;;;8.75;;
4903;SDS011;2467;48.142;11.616;2023-04-10T02:45:55;10.52;;;9.50;;
4903;SDS011;2467;48.142;11.616;2023-04-10T02:46:27;9.18;;;8.27;;
4903;SDS011;2467;48.142;11.616;2023-04-10T02:46:59;10.40;;;9.38;;
4903;SDS011;2467;48.142;11.616;2023-04-10T02:47:32;10.35;;;9.40;;
4903;SDS011;2467;48.142;11.616;2023-04-10T02:48:04;9.52;;;8.63;;
4903;SDS011;2467;48.142;11.616;2023-04-10T02:48:36;11.40;;;10.23;;
4903;SDS011;2467;48.142;11.616;2023-04-10T02:49:09;10.02;;;9.10;;
4903;SDS011;2467;48.142;11.616;2023-04-10T02:49:41;9.15;;;8.35;;
4903;SDS011;2467;48.142;11.616;2023-04-10T02:50:13;9.80;;;9.00;;
4903;SDS011;2467;48.142;11.616;2023-04-10T02:50:47;10.07;;;9.20;;
4903;SDS011;2467;48.142;11.616;2023-04-10T02:51:19;9.68;;;8.77;;
4903;SDS011;2467;48.142;11.616;2023-04-10T02:51:51;11.10;;;10.00;;
4903;SDS011;2467;48.142;11.616;2023-04-10T02:52:24;9.30;;;8.40;;
4903;SDS011;2467;48.142;11.616;2023-04-10T02:52:56;10.65;;;9.60;;
4903;SDS011;2467;48.142;11.616;2023-04-10T02:53:27;10.75;;;9.80;;
4903;SDS011;2467;48.142;11.616;2023-04-10T02:54:00;9.38;;;8.43;;
4903;SDS011;2467;48.142;11.616;2023-04-10T02:54:32;10.52;;;9.63;;
4903;SDS011;2467;48.142;11.616;2023-04-10T02:55:04;10.48;;;9.48;;
4903;SDS011;2467;48.142;11.616;2023-04-10T02:55:38;9.63;;;8.73;;
4903;SDS011;2467;48.142;11.616;2023-04-10T02:56:10;10.88;;;9.80;;
4903;SDS011;2467;48.142;11.616;2023-04-10T02:56:42;10.10;;;9.13;;
4903;SDS011;2467;48.142;11.616;2023-04-10T02:57:15;9.73;;;8.82;;
4903;SDS011;2467;48.142;11.616;2023-04-10T02:57:47;10.57;;;9.57;;
4903;SDS011;2467;48.142;11.616;2023-04-10T02:58:19;9.57;;;8.68;;
4903;SDS011;2467;48.142;11.616;2023-04-10T02:58:52;10.48;;;9.45;;
4903;SDS011;2467;48.142;11.616;2023-04-10T02:59:24;10.95;;;9.85;;
4903;SDS011;2467;48.142;11.616;2023-04-10T02:59:57;10.60;;;9.60;;
4903;SDS011;2467;48.142;11.616;2023-04-10T03:00:30;11.10;;;10.00;;
4903;SDS011;2467;48.142;11.616;2023-04-10T03:01:04;10.02;;;9.02;;
4903;SDS011;2467;48.142;11.616;2023-04-10T03:01:37;9.73;;;8.75;;
4903;SDS011;2467;48.142;11.616;2023-04-10T03:02:10;10.35;;;9.35;;
4903;SDS011;2467;48.142;11.616;2023-04-10T03:02:42;9.68;;;8.73;;
4903;SDS011;2467;48.142;11.616;2023-04-10T03:03:15;9.85;;;8.98;;
4903;SDS011;2467;48.142;11.616;2023-04-10T03:03:50;11.50;;;10.40;;
4903;SDS011;2467;48.142;11.616;2023-04-10T03:04:22;10.85;;;9.70;;
4903;SDS011;2467;48.142;11.616;2023-04-10T03:04:55;10.93;;;9.80;;
4903;SDS011;2467;48.142;11.616;2023-04-10T03:05:27;10.25;;;9.25;;
4903;SDS011;2467;48.142;11.616;2023-04-10T03:05:59;10.98;;;9.15;;
4903;SDS011;2467;48.142;11.616;2023-04-10T03:06:31;10.30;;;9.30;;
4903;SDS011;2467;48.142;11.616;2023-04-10T03:07:03;12.02;;;9.95;;
4903;SDS011;2467;48.142;11.616;2023-04-10T03:07:35;10.23;;;9.23;;
4903;SDS011;2467;48.142;11.616;2023-04-10T03:08:08;10.43;;;9.43;;
4903;SDS011;2467;48.142;11.616;2023-04-10T03:08:40;9.90;;;9.00;;
4903;SDS011;2467;48.142;11.616;2023-04-10T03:09:12;11.13;;;10.13;;
4903;SDS011;2467;48.142;11.616;2023-04-10T03:09:45;10.73;;;9.75;;
4903;SDS011;2467;48.142;11.616;2023-04-10T03:10:16;10.93;;;9.93;;
4903;SDS011;2467;48.142;11.616;2023-04-10T03:10:48;10.25;;;9.32;;
4903;SDS011;2467;48.142;11.616;2023-04-10T03:11:21;11.50;;;10.30;;
4903;SDS011;2467;48.142;11.616;2023-04-10T03:11:53;11.23;;;9.68;;
4903;SDS011;2467;48.142;11.616;2023-04-10T03:12:25;10.88;;;9.88;;
4903;SDS011;2467;48.142;11.616;2023-04-10T03:12:58;10.35;;;9.35;;
4903;SDS011;2467;48.142;11.616;2023-04-10T03:13:30;10.75;;;9.77;;
4903;SDS011;2467;48.142;11.616;2023-04-10T03:14:03;10.55;;;9.30;;
4903;SDS011;2467;48.142;11.616;2023-04-10T03:14:36;9.05;;;8.25;;
4903;SDS011;2467;48.142;11.616;2023-04-10T03:15:09;10.90;;;9.90;;
4903;SDS011;2467;48.142;11.616;2023-04-10T03:15:42;10.38;;;9.30;;
4903;SDS011;2467;48.142;11.616;2023-04-10T03:16:14;10.50;;;9.52;;
4903;SDS011;2467;48.142;11.616;2023-04-10T03:16:47;10.20;;;9.20;;
4903;SDS011;2467;48.142;11.616;2023-04-10T03:17:20;10.65;;;9.75;;
4903;SDS011;2467;48.142;11.616;2023-04-10T03:17:52;9.90;;;9.00;;
4903;SDS011;2467;48.142;11.616;2023-04-10T03:18:25;10.00;;;9.07;;
4903;SDS011;2467;48.142;11.616;2023-04-10T03:18:57;9.70;;;8.70;;
4903;SDS011;2467;48.142;11.616;2023-04-10T03:19:28;9.85;;;8.95;;
4903;SDS011;2467;48.142;11.616;2023-04-10T03:20:01;9.35;;;8.45;;
4903;SDS011;2467;48.142;11.616;2023-04-10T03:20:34;9.70;;;8.80;;
4903;SDS011;2467;48.142;11.616;2023-04-10T03:21:06;10.57;;;9.57;;
4903;SDS011;2467;48.142;11.616;2023-04-10T03:21:39;9.38;;;8.48;;
4903;SDS011;2467;48.142;11.616;2023-04-10T03:22:11;9.73;;;8.82;;
4903;SDS011;2467;48.142;11.616;2023-04-10T03:22:42;10.80;;;9.80;;
4903;SDS011;2467;48.142;11.616;2023-04-10T03:23:15;10.65;;;9.55;;
4903;SDS011;2467;48.142;11.616;2023-04-10T03:23:47;10.18;;;9.13;;
4903;SDS011;2467;48.142;11.616;2023-04-10T03:24:19;9.95;;;8.98;;
4903;SDS011;2467;48.142;11.616;2023-04-10T03:24:52;10.57;;;9.48;;
4903;SDS011;2467;48.142;11.616;2023-04-10T03:25:24;10.27;;;9.23;;